sensor_id;sensor_type;location;lat;lon;timestamp;P1;durP1;ratioP1;P2;durP2;ratioP2
11514;SDS011;5814;41.936;25.556;2023-04-01T00:01:07;5.93;;;5.43;;
11514;SDS011;5814;41.936;25.556;2023-04-01T00:03:33;6.93;;;5.83;;
11514;SDS011;5814;41.936;25.556;2023-04-01T00:06:00;5.67;;;5.37;;
11514;SDS011;5814;41.936;25.556;2023-04-01T00:08:26;6.20;;;5.60;;
11514;SDS011;5814;41.936;25.556;2023-04-01T00:10:53;6.10;;;5.70;;
11514;SDS011;5814;41.936;25.556;2023-04-01T00:13:19;6.43;;;5.93;;
11514;SDS011;5814;41.936;25.556;2023-04-01T00:15:45;6.30;;;5.80;;
11514;SDS011;5814;41.936;25.556;2023-04-01T00:18:12;6.03;;;5.53;;
11514;SDS011;5814;41.936;25.556;2023-04-01T00:20:38;5.80;;;5.40;;
11514;SDS011;5814;41.936;25.556;2023-04-01T00:23:04;6.60;;;6.13;;
11514;SDS011;5814;41.936;25.556;2023-04-01T00:25:31;5.97;;;5.47;;
11514;SDS011;5814;41.936;25.556;2023-04-01T00:27:57;6.27;;;5.87;;
11514;SDS011;5814;41.936;25.556;2023-04-01T00:30:23;6.60;;;6.10;;
11514;SDS011;5814;41.936;25.556;2023-04-01T00:32:51;6.03;;;5.53;;
11514;SDS011;5814;41.936;25.556;2023-04-01T00:35:17;5.83;;;5.43;;
11514;SDS011;5814;41.936;25.556;2023-04-01T00:37:43;6.37;;;5.80;;
11514;SDS011;5814;41.936;25.556;2023-04-01T00:40:21;6.53;;;6.13;;
11514;SDS011;5814;41.936;25.556;2023-04-01T00:42:36;5.97;;;5.57;;
11514;SDS011;5814;41.936;25.556;2023-04-01T00:47:44;6.20;;;5.80;;
11514;SDS011;5814;41.936;25.556;2023-04-01T00:50:10;5.23;;;4.93;;
11514;SDS011;5814;41.936;25.556;2023-04-01T00:52:36;6.30;;;5.80;;
11514;SDS011;5814;41.936;25.556;2023-04-01T00:55:03;6.67;;;6.17;;
11514;SDS011;5814;41.936;25.556;2023-04-01T00:57:31;6.40;;;5.77;;
11514;SDS011;5814;41.936;25.556;2023-04-01T00:59:56;6.80;;;6.20;;
11514;SDS011;5814;41.936;25.556;2023-04-01T01:02:22;6.83;;;5.70;;
11514;SDS011;5814;41.936;25.556;2023-04-01T01:04:49;6.10;;;5.60;;
11514;SDS011;5814;41.936;25.556;2023-04-01T01:07:27;5.93;;;5.43;;
11514;SDS011;5814;41.936;25.556;2023-04-01T01:09:57;6.20;;;5.53;;
11514;SDS011;5814;41.936;25.556;2023-04-01T01:15:09;6.63;;;5.27;;
11514;SDS011;5814;41.936;25.556;2023-04-01T01:20:14;7.37;;;5.60;;
11514;SDS011;5814;41.936;25.556;2023-04-01T01:22:42;6.23;;;5.63;;
11514;SDS011;5814;41.936;25.556;2023-04-01T01:25:09;6.03;;;5.63;;
11514;SDS011;5814;41.936;25.556;2023-04-01T01:27:31;7.40;;;6.30;;
11514;SDS011;5814;41.936;25.556;2023-04-01T01:29:59;6.23;;;5.70;;
11514;SDS011;5814;41.936;25.556;2023-04-01T01:32:30;6.43;;;5.83;;
11514;SDS011;5814;41.936;25.556;2023-04-01T01:37:26;6.33;;;5.73;;
11514;SDS011;5814;41.936;25.556;2023-04-01T01:39:56;8.40;;;5.97;;
11514;SDS011;5814;41.936;25.556;2023-04-01T01:42:20;6.40;;;5.80;;
11514;SDS011;5814;41.936;25.556;2023-04-01T01:44:47;6.57;;;5.93;;
11514;SDS011;5814;41.936;25.556;2023-04-01T01:47:13;6.17;;;5.77;;
11514;SDS011;5814;41.936;25.556;2023-04-01T01:49:39;6.20;;;5.80;;
11514;SDS011;5814;41.936;25.556;2023-04-01T01:52:06;6.70;;;6.10;;
11514;SDS011;5814;41.936;25.556;2023-04-01T01:54:32;6.20;;;5.60;;
11514;SDS011;5814;41.936;25.556;2023-04-01T01:57:02;6.93;;;6.40;;
11514;SDS011;5814;41.936;25.556;2023-04-01T01:59:25;8.03;;;6.60;;
11514;SDS011;5814;41.936;25.556;2023-04-01T02:01:52;7.20;;;6.60;;
11514;SDS011;5814;41.936;25.556;2023-04-01T02:04:18;6.60;;;6.07;;
11514;SDS011;5814;41.936;25.556;2023-04-01T02:06:47;7.37;;;6.67;;
11514;SDS011;5814;41.936;25.556;2023-04-01T02:09:12;7.80;;;7.10;;
11514;SDS011;5814;41.936;25.556;2023-04-01T02:11:48;7.23;;;6.63;;
11514;SDS011;5814;41.936;25.556;2023-04-01T02:14:17;7.93;;;7.23;;
11514;SDS011;5814;41.936;25.556;2023-04-01T02:16:44;9.47;;;8.57;;
11514;SDS011;5814;41.936;25.556;2023-04-01T02:19:09;10.00;;;8.40;;
11514;SDS011;5814;41.936;25.556;2023-04-01T02:21:35;8.20;;;7.40;;
11514;SDS011;5814;41.936;25.556;2023-04-01T02:24:02;10.97;;;7.30;;
11514;SDS011;5814;41.936;25.556;2023-04-01T02:26:28;8.47;;;7.60;;
11514;SDS011;5814;41.936;25.556;2023-04-01T02:28:54;9.13;;;7.27;;
11514;SDS011;5814;41.936;25.556;2023-04-01T02:31:21;9.27;;;8.53;;
11514;SDS011;5814;41.936;25.556;2023-04-01T02:33:47;8.03;;;6.50;;
11514;SDS011;5814;41.936;25.556;2023-04-01T02:36:13;8.03;;;7.33;;
11514;SDS011;5814;41.936;25.556;2023-04-01T02:38:40;9.57;;;7.27;;
11514;SDS011;5814;41.936;25.556;2023-04-01T02:41:06;9.40;;;8.20;;
11514;SDS011;5814;41.936;25.556;2023-04-01T02:43:32;8.50;;;7.90;;
11514;SDS011;5814;41.936;25.556;2023-04-01T02:45:59;10.00;;;9.10;;
11514;SDS011;5814;41.936;25.556;2023-04-01T02:48:25;11.83;;;10.90;;
11514;SDS011;5814;41.936;25.556;2023-04-01T02:50:52;13.23;;;10.80;;
11514;SDS011;5814;41.936;25.556;2023-04-01T02:53:18;15.40;;;13.67;;
11514;SDS011;5814;41.936;25.556;2023-04-01T02:55:44;12.17;;;9.93;;
11514;SDS011;5814;41.936;25.556;2023-04-01T02:58:11;11.40;;;10.50;;
11514;SDS011;5814;41.936;25.556;2023-04-01T03:00:37;13.90;;;12.43;;
11514;SDS011;5814;41.936;25.556;2023-04-01T03:03:03;13.53;;;12.33;;
11514;SDS011;5814;41.936;25.556;2023-04-01T03:05:30;22.77;;;19.37;;
11514;SDS011;5814;41.936;25.556;2023-04-01T03:07:56;13.87;;;12.47;;
11514;SDS011;5814;41.936;25.556;2023-04-01T03:10:23;15.07;;;13.90;;
11514;SDS011;5814;41.936;25.556;2023-04-01T03:12:49;14.47;;;13.00;;
11514;SDS011;5814;41.936;25.556;2023-04-01T03:15:15;11.97;;;10.83;;
11514;SDS011;5814;41.936;25.556;2023-04-01T03:17:42;12.03;;;11.03;;
11514;SDS011;5814;41.936;25.556;2023-04-01T03:20:08;12.83;;;11.17;;
11514;SDS011;5814;41.936;25.556;2023-04-01T03:22:35;10.80;;;9.67;;
11514;SDS011;5814;41.936;25.556;2023-04-01T03:25:01;14.07;;;9.70;;
11514;SDS011;5814;41.936;25.556;2023-04-01T03:27:27;10.67;;;9.57;;
11514;SDS011;5814;41.936;25.556;2023-04-01T03:29:54;15.70;;;14.40;;
11514;SDS011;5814;41.936;25.556;2023-04-01T03:32:20;13.70;;;12.27;;
11514;SDS011;5814;41.936;25.556;2023-04-01T03:34:47;10.30;;;9.40;;
11514;SDS011;5814;41.936;25.556;2023-04-01T03:37:13;12.20;;;11.00;;
11514;SDS011;5814;41.936;25.556;2023-04-01T03:39:39;12.10;;;10.77;;
11514;SDS011;5814;41.936;25.556;2023-04-01T03:42:06;10.80;;;9.90;;
11514;SDS011;5814;41.936;25.556;2023-04-01T03:44:32;14.43;;;12.90;;
11514;SDS011;5814;41.936;25.556;2023-04-01T03:46:59;16.63;;;14.77;;
11514;SDS011;5814;41.936;25.556;2023-04-01T03:49:25;18.57;;;16.77;;
11514;SDS011;5814;41.936;25.556;2023-04-01T03:51:51;14.93;;;13.47;;
11514;SDS011;5814;41.936;25.556;2023-04-01T03:54:18;16.30;;;14.57;;
11514;SDS011;5814;41.936;25.556;2023-04-01T03:56:44;11.47;;;10.50;;
11514;SDS011;5814;41.936;25.556;2023-04-01T03:59:10;21.03;;;19.07;;
11514;SDS011;5814;41.936;25.556;2023-04-01T04:01:37;37.17;;;29.90;;
11514;SDS011;5814;41.936;25.556;2023-04-01T04:04:03;35.93;;;28.33;;
11514;SDS011;5814;41.936;25.556;2023-04-01T04:06:29;42.70;;;28.80;;
11514;SDS011;5814;41.936;25.556;2023-04-01T04:08:56;40.17;;;26.10;;
11514;SDS011;5814;41.936;25.556;2023-04-01T04:11:22;25.80;;;20.50;;
11514;SDS011;5814;41.936;25.556;2023-04-01T04:13:48;23.33;;;20.60;;
11514;SDS011;5814;41.936;25.556;2023-04-01T04:16:15;31.57;;;23.00;;
11514;SDS011;5814;41.936;25.556;2023-04-01T04:18:41;28.47;;;21.33;;
11514;SDS011;5814;41.936;25.556;2023-04-01T04:21:10;10.57;;;9.47;;
11514;SDS011;5814;41.936;25.556;2023-04-01T04:23:34;20.20;;;18.17;;
11514;SDS011;5814;41.936;25.556;2023-04-01T04:26:01;24.27;;;21.40;;
11514;SDS011;5814;41.936;25.556;2023-04-01T04:28:27;34.33;;;27.10;;
11514;SDS011;5814;41.936;25.556;2023-04-01T04:30:53;13.93;;;12.47;;
11514;SDS011;5814;41.936;25.556;2023-04-01T04:33:19;45.83;;;38.57;;
11514;SDS011;5814;41.936;25.556;2023-04-01T04:35:46;21.10;;;18.87;;
11514;SDS011;5814;41.936;25.556;2023-04-01T04:38:12;15.80;;;13.77;;
11514;SDS011;5814;41.936;25.556;2023-04-01T04:40:39;15.90;;;14.50;;
11514;SDS011;5814;41.936;25.556;2023-04-01T04:43:05;17.27;;;13.17;;
11514;SDS011;5814;41.936;25.556;2023-04-01T04:45:31;16.73;;;14.80;;
11514;SDS011;5814;41.936;25.556;2023-04-01T04:47:58;15.37;;;13.87;;
11514;SDS011;5814;41.936;25.556;2023-04-01T04:50:24;19.33;;;13.97;;
11514;SDS011;5814;41.936;25.556;2023-04-01T04:52:50;21.17;;;16.17;;
11514;SDS011;5814;41.936;25.556;2023-04-01T04:55:17;13.33;;;11.93;;
11514;SDS011;5814;41.936;25.556;2023-04-01T04:57:43;23.47;;;17.43;;
11514;SDS011;5814;41.936;25.556;2023-04-01T05:00:10;33.87;;;30.40;;
11514;SDS011;5814;41.936;25.556;2023-04-01T05:02:36;22.23;;;19.80;;
11514;SDS011;5814;41.936;25.556;2023-04-01T05:05:03;21.83;;;19.53;;
11514;SDS011;5814;41.936;25.556;2023-04-01T05:07:29;19.07;;;16.43;;
11514;SDS011;5814;41.936;25.556;2023-04-01T05:09:56;16.07;;;14.60;;
11514;SDS011;5814;41.936;25.556;2023-04-01T05:12:22;12.63;;;11.60;;
11514;SDS011;5814;41.936;25.556;2023-04-01T05:14:48;15.17;;;13.80;;
11514;SDS011;5814;41.936;25.556;2023-04-01T05:17:15;13.93;;;12.60;;
11514;SDS011;5814;41.936;25.556;2023-04-01T05:19:41;12.80;;;11.67;;
11514;SDS011;5814;41.936;25.556;2023-04-01T05:22:07;14.43;;;11.60;;
11514;SDS011;5814;41.936;25.556;2023-04-01T05:24:34;13.23;;;11.80;;
11514;SDS011;5814;41.936;25.556;2023-04-01T05:27:00;15.00;;;13.40;;
11514;SDS011;5814;41.936;25.556;2023-04-01T05:29:26;24.27;;;14.73;;
11514;SDS011;5814;41.936;25.556;2023-04-01T05:31:53;20.33;;;18.17;;
11514;SDS011;5814;41.936;25.556;2023-04-01T05:34:19;16.77;;;15.17;;
11514;SDS011;5814;41.936;25.556;2023-04-01T05:36:45;24.43;;;18.03;;
11514;SDS011;5814;41.936;25.556;2023-04-01T05:39:12;16.07;;;14.37;;
11514;SDS011;5814;41.936;25.556;2023-04-01T05:41:38;17.97;;;14.20;;
11514;SDS011;5814;41.936;25.556;2023-04-01T05:44:05;15.73;;;14.20;;
11514;SDS011;5814;41.936;25.556;2023-04-01T05:46:31;17.80;;;12.90;;
11514;SDS011;5814;41.936;25.556;2023-04-01T05:48:57;17.10;;;12.93;;
11514;SDS011;5814;41.936;25.556;2023-04-01T05:51:24;45.00;;;25.10;;
11514;SDS011;5814;41.936;25.556;2023-04-01T05:53:50;124.33;;;50.20;;
11514;SDS011;5814;41.936;25.556;2023-04-01T05:56:16;168.87;;;73.70;;
11514;SDS011;5814;41.936;25.556;2023-04-01T05:58:43;243.10;;;129.13;;
11514;SDS011;5814;41.936;25.556;2023-04-01T06:01:10;45.47;;;28.60;;
11514;SDS011;5814;41.936;25.556;2023-04-01T06:03:35;70.90;;;41.50;;
11514;SDS011;5814;41.936;25.556;2023-04-01T06:06:02;52.63;;;32.90;;
11514;SDS011;5814;41.936;25.556;2023-04-01T06:08:29;13.50;;;12.17;;
11514;SDS011;5814;41.936;25.556;2023-04-01T06:11:06;17.40;;;14.10;;
11514;SDS011;5814;41.936;25.556;2023-04-01T06:13:56;14.03;;;11.77;;
11514;SDS011;5814;41.936;25.556;2023-04-01T06:16:32;35.53;;;24.80;;
11514;SDS011;5814;41.936;25.556;2023-04-01T06:19:05;20.52;;;13.80;;
11514;SDS011;5814;41.936;25.556;2023-04-01T06:21:33;20.10;;;13.60;;
11514;SDS011;5814;41.936;25.556;2023-04-01T06:24:01;21.35;;;15.30;;
11514;SDS011;5814;41.936;25.556;2023-04-01T06:29:11;15.43;;;12.00;;
11514;SDS011;5814;41.936;25.556;2023-04-01T06:31:38;14.50;;;12.45;;
11514;SDS011;5814;41.936;25.556;2023-04-01T06:34:21;11.60;;;9.25;;
11514;SDS011;5814;41.936;25.556;2023-04-01T06:36:53;10.38;;;9.40;;
11514;SDS011;5814;41.936;25.556;2023-04-01T06:39:20;16.00;;;9.90;;
11514;SDS011;5814;41.936;25.556;2023-04-01T06:44:16;11.02;;;9.23;;
11514;SDS011;5814;41.936;25.556;2023-04-01T06:46:45;10.82;;;9.82;;
11514;SDS011;5814;41.936;25.556;2023-04-01T06:49:17;11.27;;;10.35;;
11514;SDS011;5814;41.936;25.556;2023-04-01T06:51:45;11.10;;;9.93;;
11514;SDS011;5814;41.936;25.556;2023-04-01T06:54:10;16.45;;;11.55;;
11514;SDS011;5814;41.936;25.556;2023-04-01T06:56:36;12.65;;;10.10;;
11514;SDS011;5814;41.936;25.556;2023-04-01T06:59:02;10.52;;;9.15;;
11514;SDS011;5814;41.936;25.556;2023-04-01T07:01:30;11.38;;;10.23;;
11514;SDS011;5814;41.936;25.556;2023-04-01T07:03:56;16.85;;;10.88;;
11514;SDS011;5814;41.936;25.556;2023-04-01T07:06:30;23.15;;;13.98;;
11514;SDS011;5814;41.936;25.556;2023-04-01T07:08:58;20.33;;;12.15;;
11514;SDS011;5814;41.936;25.556;2023-04-01T07:11:25;16.73;;;9.65;;
11514;SDS011;5814;41.936;25.556;2023-04-01T07:13:52;11.75;;;10.50;;
11514;SDS011;5814;41.936;25.556;2023-04-01T07:16:24;14.32;;;10.13;;
11514;SDS011;5814;41.936;25.556;2023-04-01T07:18:52;23.35;;;16.33;;
11514;SDS011;5814;41.936;25.556;2023-04-01T07:21:20;18.27;;;11.70;;
11514;SDS011;5814;41.936;25.556;2023-04-01T07:23:44;12.18;;;10.10;;
11514;SDS011;5814;41.936;25.556;2023-04-01T07:26:14;12.85;;;10.27;;
11514;SDS011;5814;41.936;25.556;2023-04-01T07:28:37;17.65;;;13.32;;
11514;SDS011;5814;41.936;25.556;2023-04-01T07:31:07;13.27;;;10.23;;
11514;SDS011;5814;41.936;25.556;2023-04-01T07:33:38;15.75;;;10.45;;
11514;SDS011;5814;41.936;25.556;2023-04-01T07:36:10;10.43;;;9.45;;
11514;SDS011;5814;41.936;25.556;2023-04-01T07:38:38;8.57;;;7.10;;
11514;SDS011;5814;41.936;25.556;2023-04-01T07:41:05;10.15;;;6.60;;
11514;SDS011;5814;41.936;25.556;2023-04-01T07:43:32;13.10;;;7.35;;
11514;SDS011;5814;41.936;25.556;2023-04-01T07:48:47;9.45;;;6.40;;
11514;SDS011;5814;41.936;25.556;2023-04-01T07:51:19;12.50;;;6.55;;
11514;SDS011;5814;41.936;25.556;2023-04-01T07:53:46;8.35;;;5.78;;
11514;SDS011;5814;41.936;25.556;2023-04-01T07:57:19;12.23;;;6.75;;
11514;SDS011;5814;41.936;25.556;2023-04-01T07:58:59;13.10;;;6.50;;
11514;SDS011;5814;41.936;25.556;2023-04-01T08:01:27;9.77;;;6.32;;
11514;SDS011;5814;41.936;25.556;2023-04-01T08:06:25;7.80;;;6.10;;
11514;SDS011;5814;41.936;25.556;2023-04-01T08:08:56;11.55;;;5.72;;
11514;SDS011;5814;41.936;25.556;2023-04-01T08:11:21;10.52;;;6.80;;
11514;SDS011;5814;41.936;25.556;2023-04-01T08:13:58;7.30;;;5.32;;
11514;SDS011;5814;41.936;25.556;2023-04-01T08:16:28;7.15;;;6.20;;
11514;SDS011;5814;41.936;25.556;2023-04-01T08:19:30;12.20;;;6.72;;
11514;SDS011;5814;41.936;25.556;2023-04-01T08:21:38;6.22;;;5.62;;
11514;SDS011;5814;41.936;25.556;2023-04-01T08:24:06;6.43;;;5.40;;
11514;SDS011;5814;41.936;25.556;2023-04-01T08:26:35;10.20;;;5.78;;
11514;SDS011;5814;41.936;25.556;2023-04-01T08:29:07;10.07;;;6.53;;
11514;SDS011;5814;41.936;25.556;2023-04-01T08:31:33;8.07;;;6.15;;
11514;SDS011;5814;41.936;25.556;2023-04-01T08:33:58;10.52;;;6.50;;
11514;SDS011;5814;41.936;25.556;2023-04-01T08:36:25;9.73;;;5.80;;
11514;SDS011;5814;41.936;25.556;2023-04-01T08:38:52;10.88;;;5.82;;
11514;SDS011;5814;41.936;25.556;2023-04-01T08:41:29;8.88;;;5.57;;
11514;SDS011;5814;41.936;25.556;2023-04-01T08:43:59;8.88;;;6.00;;
11514;SDS011;5814;41.936;25.556;2023-04-01T08:49:00;9.40;;;6.43;;
11514;SDS011;5814;41.936;25.556;2023-04-01T08:51:42;8.85;;;5.53;;
11514;SDS011;5814;41.936;25.556;2023-04-01T08:56:26;9.60;;;6.05;;
11514;SDS011;5814;41.936;25.556;2023-04-01T09:04:01;9.07;;;5.40;;
11514;SDS011;5814;41.936;25.556;2023-04-01T09:06:29;7.75;;;5.75;;
11514;SDS011;5814;41.936;25.556;2023-04-01T09:12:47;10.43;;;5.35;;
11514;SDS011;5814;41.936;25.556;2023-04-01T09:14:23;10.52;;;6.80;;
11514;SDS011;5814;41.936;25.556;2023-04-01T09:16:51;11.25;;;6.78;;
11514;SDS011;5814;41.936;25.556;2023-04-01T09:19:15;11.15;;;6.55;;
11514;SDS011;5814;41.936;25.556;2023-04-01T09:21:52;12.52;;;6.47;;
11514;SDS011;5814;41.936;25.556;2023-04-01T09:24:31;10.75;;;6.37;;
11514;SDS011;5814;41.936;25.556;2023-04-01T09:27:04;9.77;;;5.60;;
11514;SDS011;5814;41.936;25.556;2023-04-01T09:29:40;7.60;;;5.53;;
11514;SDS011;5814;41.936;25.556;2023-04-01T09:32:04;10.80;;;6.18;;
11514;SDS011;5814;41.936;25.556;2023-04-01T09:34:30;9.32;;;5.68;;
11514;SDS011;5814;41.936;25.556;2023-04-01T09:37:00;10.20;;;5.85;;
11514;SDS011;5814;41.936;25.556;2023-04-01T09:39:26;8.23;;;6.45;;
11514;SDS011;5814;41.936;25.556;2023-04-01T09:42:04;9.85;;;5.95;;
11514;SDS011;5814;41.936;25.556;2023-04-01T09:44:35;12.75;;;6.55;;
11514;SDS011;5814;41.936;25.556;2023-04-01T09:47:10;10.77;;;6.10;;
11514;SDS011;5814;41.936;25.556;2023-04-01T09:49:43;8.88;;;6.60;;
11514;SDS011;5814;41.936;25.556;2023-04-01T09:54:56;8.50;;;6.10;;
11514;SDS011;5814;41.936;25.556;2023-04-01T10:00:07;10.15;;;5.60;;
11514;SDS011;5814;41.936;25.556;2023-04-01T10:02:36;9.98;;;5.60;;
11514;SDS011;5814;41.936;25.556;2023-04-01T10:05:22;8.77;;;5.45;;
11514;SDS011;5814;41.936;25.556;2023-04-01T10:08:02;7.90;;;5.75;;
11514;SDS011;5814;41.936;25.556;2023-04-01T10:10:27;5.25;;;4.60;;
11514;SDS011;5814;41.936;25.556;2023-04-01T10:12:56;10.68;;;5.68;;
11514;SDS011;5814;41.936;25.556;2023-04-01T10:15:28;12.75;;;5.60;;
11514;SDS011;5814;41.936;25.556;2023-04-01T10:17:56;10.00;;;5.40;;
11514;SDS011;5814;41.936;25.556;2023-04-01T10:20:29;9.65;;;5.10;;
11514;SDS011;5814;41.936;25.556;2023-04-01T10:23:07;7.60;;;5.15;;
11514;SDS011;5814;41.936;25.556;2023-04-01T10:25:34;8.18;;;5.30;;
11514;SDS011;5814;41.936;25.556;2023-04-01T10:33:16;8.45;;;5.95;;
11514;SDS011;5814;41.936;25.556;2023-04-01T10:35:49;8.00;;;5.53;;
11514;SDS011;5814;41.936;25.556;2023-04-01T10:38:19;9.52;;;5.60;;
11514;SDS011;5814;41.936;25.556;2023-04-01T10:40:50;8.45;;;5.72;;
11514;SDS011;5814;41.936;25.556;2023-04-01T10:43:19;10.63;;;5.03;;
11514;SDS011;5814;41.936;25.556;2023-04-01T10:56:29;11.90;;;5.57;;
11514;SDS011;5814;41.936;25.556;2023-04-01T10:58:56;9.13;;;5.15;;
11514;SDS011;5814;41.936;25.556;2023-04-01T11:01:56;8.68;;;5.87;;
11514;SDS011;5814;41.936;25.556;2023-04-01T11:04:10;11.12;;;5.80;;
11514;SDS011;5814;41.936;25.556;2023-04-01T11:06:37;12.93;;;6.37;;
11514;SDS011;5814;41.936;25.556;2023-04-01T11:09:05;9.85;;;5.70;;
11514;SDS011;5814;41.936;25.556;2023-04-01T11:14:24;15.43;;;6.82;;
11514;SDS011;5814;41.936;25.556;2023-04-01T11:19:48;9.70;;;5.82;;
11514;SDS011;5814;41.936;25.556;2023-04-01T11:22:31;14.43;;;5.72;;
11514;SDS011;5814;41.936;25.556;2023-04-01T11:25:00;8.15;;;5.03;;
11514;SDS011;5814;41.936;25.556;2023-04-01T11:30:00;5.47;;;4.55;;
11514;SDS011;5814;41.936;25.556;2023-04-01T11:32:29;8.23;;;5.00;;
11514;SDS011;5814;41.936;25.556;2023-04-01T11:34:57;8.93;;;5.15;;
11514;SDS011;5814;41.936;25.556;2023-04-01T11:40:06;13.62;;;5.15;;
11514;SDS011;5814;41.936;25.556;2023-04-01T11:42:45;9.63;;;5.03;;
11514;SDS011;5814;41.936;25.556;2023-04-01T11:45:20;13.77;;;5.87;;
11514;SDS011;5814;41.936;25.556;2023-04-01T11:47:52;9.98;;;5.18;;
11514;SDS011;5814;41.936;25.556;2023-04-01T11:50:26;10.52;;;5.05;;
11514;SDS011;5814;41.936;25.556;2023-04-01T11:53:02;12.25;;;5.78;;
11514;SDS011;5814;41.936;25.556;2023-04-01T11:55:33;13.13;;;6.45;;
11514;SDS011;5814;41.936;25.556;2023-04-01T11:58:04;14.75;;;5.70;;
11514;SDS011;5814;41.936;25.556;2023-04-01T12:00:59;11.50;;;5.80;;
11514;SDS011;5814;41.936;25.556;2023-04-01T12:13:41;13.85;;;5.40;;
11514;SDS011;5814;41.936;25.556;2023-04-01T12:16:11;14.48;;;5.55;;
11514;SDS011;5814;41.936;25.556;2023-04-01T12:21:24;11.40;;;5.75;;
11514;SDS011;5814;41.936;25.556;2023-04-01T12:24:03;9.77;;;5.30;;
11514;SDS011;5814;41.936;25.556;2023-04-01T12:26:30;10.00;;;5.40;;
11514;SDS011;5814;41.936;25.556;2023-04-01T12:29:06;7.93;;;4.62;;
11514;SDS011;5814;41.936;25.556;2023-04-01T12:31:47;10.55;;;5.47;;
11514;SDS011;5814;41.936;25.556;2023-04-01T12:34:22;11.20;;;6.03;;
11514;SDS011;5814;41.936;25.556;2023-04-01T12:36:49;8.90;;;6.03;;
11514;SDS011;5814;41.936;25.556;2023-04-01T12:39:20;9.68;;;5.12;;
11514;SDS011;5814;41.936;25.556;2023-04-01T12:42:04;15.02;;;6.62;;
11514;SDS011;5814;41.936;25.556;2023-04-01T12:44:33;10.48;;;5.57;;
11514;SDS011;5814;41.936;25.556;2023-04-01T12:47:04;8.80;;;5.57;;
11514;SDS011;5814;41.936;25.556;2023-04-01T12:49:31;13.98;;;5.90;;
11514;SDS011;5814;41.936;25.556;2023-04-01T12:51:58;8.80;;;5.93;;
11514;SDS011;5814;41.936;25.556;2023-04-01T12:54:26;6.87;;;4.78;;
11514;SDS011;5814;41.936;25.556;2023-04-01T12:56:53;13.13;;;6.05;;
11514;SDS011;5814;41.936;25.556;2023-04-01T13:01:53;11.93;;;5.32;;
11514;SDS011;5814;41.936;25.556;2023-04-01T13:09:59;7.80;;;5.25;;
11514;SDS011;5814;41.936;25.556;2023-04-01T13:12:29;13.55;;;5.82;;
11514;SDS011;5814;41.936;25.556;2023-04-01T13:17:38;10.68;;;5.30;;
11514;SDS011;5814;41.936;25.556;2023-04-01T13:20:06;10.20;;;5.68;;
11514;SDS011;5814;41.936;25.556;2023-04-01T13:23:05;13.55;;;6.03;;
11514;SDS011;5814;41.936;25.556;2023-04-01T13:28:00;15.30;;;5.93;;
11514;SDS011;5814;41.936;25.556;2023-04-01T13:30:26;10.25;;;5.85;;
11514;SDS011;5814;41.936;25.556;2023-04-01T13:32:56;11.27;;;6.05;;
11514;SDS011;5814;41.936;25.556;2023-04-01T13:35:28;12.63;;;6.18;;
11514;SDS011;5814;41.936;25.556;2023-04-01T13:38:02;8.80;;;5.15;;
11514;SDS011;5814;41.936;25.556;2023-04-01T13:40:28;10.93;;;5.80;;
11514;SDS011;5814;41.936;25.556;2023-04-01T13:42:54;10.77;;;5.93;;
11514;SDS011;5814;41.936;25.556;2023-04-01T13:45:22;8.05;;;5.57;;
11514;SDS011;5814;41.936;25.556;2023-04-01T13:47:56;16.80;;;6.10;;
11514;SDS011;5814;41.936;25.556;2023-04-01T13:50:25;7.28;;;4.93;;
11514;SDS011;5814;41.936;25.556;2023-04-01T13:55:35;9.45;;;5.62;;
11514;SDS011;5814;41.936;25.556;2023-04-01T14:00:39;7.87;;;5.45;;
11514;SDS011;5814;41.936;25.556;2023-04-01T14:03:24;13.65;;;6.28;;
11514;SDS011;5814;41.936;25.556;2023-04-01T14:08:35;13.80;;;5.60;;
11514;SDS011;5814;41.936;25.556;2023-04-01T14:11:17;15.27;;;5.90;;
11514;SDS011;5814;41.936;25.556;2023-04-01T14:13:50;7.87;;;5.03;;
11514;SDS011;5814;41.936;25.556;2023-04-01T14:19:01;5.30;;;4.80;;
11514;SDS011;5814;41.936;25.556;2023-04-01T14:25:10;7.72;;;4.75;;
11514;SDS011;5814;41.936;25.556;2023-04-01T14:32:11;12.40;;;5.53;;
11514;SDS011;5814;41.936;25.556;2023-04-01T14:34:40;8.93;;;5.85;;
11514;SDS011;5814;41.936;25.556;2023-04-01T14:38:15;10.70;;;5.50;;
11514;SDS011;5814;41.936;25.556;2023-04-01T14:39:57;9.18;;;5.93;;
11514;SDS011;5814;41.936;25.556;2023-04-01T14:45:12;14.75;;;8.15;;
11514;SDS011;5814;41.936;25.556;2023-04-01T14:47:40;23.20;;;10.40;;
11514;SDS011;5814;41.936;25.556;2023-04-01T14:50:06;17.15;;;11.23;;
11514;SDS011;5814;41.936;25.556;2023-04-01T14:52:31;16.02;;;10.95;;
11514;SDS011;5814;41.936;25.556;2023-04-01T14:54:57;10.90;;;9.80;;
11514;SDS011;5814;41.936;25.556;2023-04-01T14:57:24;16.35;;;10.30;;
11514;SDS011;5814;41.936;25.556;2023-04-01T14:59:51;13.02;;;10.65;;
11514;SDS011;5814;41.936;25.556;2023-04-01T15:02:24;10.73;;;9.82;;
11514;SDS011;5814;41.936;25.556;2023-04-01T15:04:50;14.77;;;10.32;;
11514;SDS011;5814;41.936;25.556;2023-04-01T15:07:29;12.30;;;9.60;;
11514;SDS011;5814;41.936;25.556;2023-04-01T15:12:48;9.97;;;9.03;;
11514;SDS011;5814;41.936;25.556;2023-04-01T15:15:16;10.10;;;9.30;;
11514;SDS011;5814;41.936;25.556;2023-04-01T15:18:13;9.67;;;8.83;;
11514;SDS011;5814;41.936;25.556;2023-04-01T15:20:30;10.40;;;8.10;;
11514;SDS011;5814;41.936;25.556;2023-04-01T15:22:59;9.77;;;8.53;;
11514;SDS011;5814;41.936;25.556;2023-04-01T15:25:28;9.07;;;8.27;;
11514;SDS011;5814;41.936;25.556;2023-04-01T15:28:05;9.80;;;8.90;;
11514;SDS011;5814;41.936;25.556;2023-04-01T15:30:32;18.33;;;13.73;;
11514;SDS011;5814;41.936;25.556;2023-04-01T15:33:01;24.13;;;16.07;;
11514;SDS011;5814;41.936;25.556;2023-04-01T15:35:30;11.40;;;10.20;;
11514;SDS011;5814;41.936;25.556;2023-04-01T15:37:54;16.23;;;14.17;;
11514;SDS011;5814;41.936;25.556;2023-04-01T15:40:22;16.92;;;11.30;;
11514;SDS011;5814;41.936;25.556;2023-04-01T15:42:54;11.17;;;10.00;;
11514;SDS011;5814;41.936;25.556;2023-04-01T15:45:25;21.43;;;16.13;;
11514;SDS011;5814;41.936;25.556;2023-04-01T15:47:46;11.38;;;9.48;;
11514;SDS011;5814;41.936;25.556;2023-04-01T15:53:01;9.67;;;8.77;;
11514;SDS011;5814;41.936;25.556;2023-04-01T16:00:44;8.00;;;7.23;;
11514;SDS011;5814;41.936;25.556;2023-04-01T16:05:44;8.47;;;7.40;;
11514;SDS011;5814;41.936;25.556;2023-04-01T16:08:11;7.87;;;7.17;;
11514;SDS011;5814;41.936;25.556;2023-04-01T16:10:44;9.93;;;9.23;;
11514;SDS011;5814;41.936;25.556;2023-04-01T16:15:39;10.63;;;9.57;;
11514;SDS011;5814;41.936;25.556;2023-04-01T16:18:22;11.23;;;10.33;;
11514;SDS011;5814;41.936;25.556;2023-04-01T16:20:48;12.10;;;11.00;;
11514;SDS011;5814;41.936;25.556;2023-04-01T16:23:33;11.67;;;10.10;;
11514;SDS011;5814;41.936;25.556;2023-04-01T16:26:03;11.57;;;10.63;;
11514;SDS011;5814;41.936;25.556;2023-04-01T16:28:31;11.45;;;10.35;;
11514;SDS011;5814;41.936;25.556;2023-04-01T16:31:03;12.67;;;10.80;;
11514;SDS011;5814;41.936;25.556;2023-04-01T16:33:34;10.97;;;10.07;;
11514;SDS011;5814;41.936;25.556;2023-04-01T16:35:59;11.23;;;10.23;;
11514;SDS011;5814;41.936;25.556;2023-04-01T16:38:33;11.77;;;10.67;;
11514;SDS011;5814;41.936;25.556;2023-04-01T16:41:06;10.00;;;9.07;;
11514;SDS011;5814;41.936;25.556;2023-04-01T16:43:30;8.90;;;8.20;;
11514;SDS011;5814;41.936;25.556;2023-04-01T16:45:59;8.53;;;7.77;;
11514;SDS011;5814;41.936;25.556;2023-04-01T16:48:27;8.63;;;7.67;;
11514;SDS011;5814;41.936;25.556;2023-04-01T16:50:53;10.33;;;9.50;;
11514;SDS011;5814;41.936;25.556;2023-04-01T16:53:19;11.53;;;10.33;;
11514;SDS011;5814;41.936;25.556;2023-04-01T16:55:46;10.90;;;9.73;;